Nearby METAR Reports

 

KFIN - Palm Coast, Florida, USA
Distance from station: ENE 9mi, 15km
Updated: Thu, 21-Feb-2019 12:55am EST
Clear
Clear
 Wind from SSE
Wind: SSE 3 mph , 6 km/h
Temperature: 68°F , 20°C
Dew Point: 66°F , 19°C
Humidity: 94%
Barometer: 30.12 inHg , 1020 hPa
Clouds: Clear
Visibility: 7 miles , 11 km
2019/02/21 05:55 KFIN 210555Z AUTO 15003KT 7SM CLR 20/19 A3012 RMK AO2 T01980192 10215 20196 402720146
KOMN - Ormond Beach Vor, Florida, USA
Distance from station: ESE 17mi, 27km
Updated: Wed, 20-Feb-2019 6:50pm EST
NOT Current
Clear
Clear
 Wind from ESE
Wind: ESE 5 mph , 7 km/h
Temperature: 72°F , 22°C
Dew Point: 72°F , 22°C
Humidity: 100%
Barometer: 30.08 inHg , 1018.6 hPa
Clouds: Clear
Visibility: 7 miles , 11 km
2019/02/20 23:50 KOMN 202350Z 12004KT 7SM CLR 22/22 A3008 RMK LAST
 
KDAB - Daytona Beach, Florida, USA
Distance from station: SE 24mi, 39km
Updated: Thu, 21-Feb-2019 12:53am EST
Partly cloudy
Partly cloudy
 Wind from S
Wind: S 6 mph , 9 km/h
Temperature: 70°F , 21°C
Dew Point: 70°F , 21°C
Humidity: 100%
Barometer: 30.12 inHg , 1020 hPa
Clouds: Partly cloudy
Visibility: 10 miles , 16 km
Cloud details: Partly cloudy 8000 ft
2019/02/21 05:53 KDAB 210553Z 19005KT 10SM SCT080 21/21 A3012 RMK AO2 SLP198 T02110211 10239 20206 50003
KDED - Deland, Florida, USA
Distance from station: S 26mi, 41km
Updated: Thu, 21-Feb-2019 12:55am EST
Clear
Clear
 Wind from SE
Wind: SE 5 mph , 7 km/h
Temperature: 70°F , 21°C
Dew Point: 68°F , 20°C
Humidity: 94%
Barometer: 30.12 inHg , 1020 hPa
Clouds: Clear
Visibility: 10 miles , 16 km
2019/02/21 05:55 KDED 210555Z AUTO 14004KT 10SM CLR 21/20 A3012 RMK AO2
 
KEVB - New Smyrna Beach, Florida, USA
Distance from station: SE 36mi, 58km
Updated: Wed, 20-Feb-2019 9:47pm EST
NOT Current
Clear
Clear
 Wind from SSE
Wind: SSE 8 mph , 13 km/h
Temperature: 73°F , 23°C
Dew Point: 68°F , 20°C
Humidity: 83%
Barometer: 30.13 inHg , 1020.3 hPa
Clouds: Clear
Visibility: 10 miles , 16 km
2019/02/21 02:47 KEVB 210247Z 15007KT 10SM CLR 23/20 A3013 RMK LAST
KSGJ - St Augustine, Florida, USA
Distance from station: N 37mi, 60km
Updated: Thu, 21-Feb-2019 12:56am EST
Overcast
Overcast
 Wind from S
Wind: S 3 mph , 6 km/h
Temperature: 70°F , 21°C
Dew Point: 70°F , 21°C
Humidity: 100%
Barometer: 30.12 inHg , 1020 hPa
Clouds: Overcast
Visibility: 10 miles , 16 km
Cloud details: Overcast 5000 ft
2019/02/21 05:56 KSGJ 210556Z AUTO 18003KT 10SM OVC050 21/21 A3012 RMK AO2 RAB02E20 SLP198 P0001 60027 T02110206 10217 20206 58001
 
KSFB - Sanford/Orlando, Florida, USA
Distance from station: S 47mi, 75km
Updated: Thu, 21-Feb-2019 12:53am EST
Clear
Clear
 Wind from S
Wind: S 7 mph , 11 km/h
Temperature: 72°F , 22°C
Dew Point: 70°F , 21°C
Humidity: 94%
Barometer: 30.12 inHg , 1020 hPa
Clouds: Clear
Visibility: 10 miles , 16 km
2019/02/21 05:53 KSFB 210553Z AUTO 17006KT 10SM CLR 22/21 A3012 RMK AO2 SLP197 T02170206 10244 20211 58000
KVVG - The Villages, Florida, USA
Distance from station: SW 50mi, 80km
Updated: Wed, 14-Feb-2018 2:10pm EST
NOT Current

 Wind from calm
Wind: Calm
Temperature: 73°F , 23°C
Dew Point: 66°F , 19°C
Humidity: 78%
Barometer: 30.29 inHg , 1025.7 hPa
Visibility: 10 miles , 16 km
2018/02/14 19:10 KVVG 141910Z AUTO 00000KT 10SM 23/19 A3029 RMK A01